createdAt,value
2018-12-22T00:00:34.480Z,4.40
2018-12-22T00:01:34.572Z,4.30
2018-12-22T00:02:34.666Z,4.60
2018-12-22T00:03:34.763Z,4.60
2018-12-22T00:04:34.849Z,4.60
2018-12-22T00:05:34.941Z,4.60
2018-12-22T00:06:35.036Z,4.10
2018-12-22T00:07:35.131Z,4.70
2018-12-22T00:08:35.219Z,5.20
2018-12-22T00:09:35.312Z,4.60
2018-12-22T00:10:35.456Z,4.50
2018-12-22T00:11:35.497Z,4.70
2018-12-22T00:12:35.587Z,4.40
2018-12-22T00:13:35.682Z,4.30
2018-12-22T00:14:35.775Z,4.10
2018-12-22T00:15:35.864Z,4.10
2018-12-22T00:16:35.955Z,4.40
2018-12-22T00:17:36.045Z,4.40
2018-12-22T00:18:36.139Z,4.40
2018-12-22T00:19:36.231Z,4.70
2018-12-22T00:20:36.323Z,4.10
2018-12-22T00:21:36.416Z,4.30
2018-12-22T00:22:36.507Z,4.20
2018-12-22T00:23:36.600Z,4.80
2018-12-22T00:24:36.701Z,5.20
2018-12-22T00:25:36.782Z,4.20
2018-12-22T00:26:36.874Z,4.50
2018-12-22T00:27:38.796Z,4.10
2018-12-22T00:28:37.061Z,4.10
2018-12-22T00:29:37.153Z,4.50
2018-12-22T00:30:37.241Z,4.10
2018-12-22T00:31:37.335Z,4.40
2018-12-22T00:32:37.426Z,4.30
2018-12-22T00:33:37.518Z,4.50
2018-12-22T00:34:37.613Z,4.00
2018-12-22T00:35:37.703Z,4.60
2018-12-22T00:36:37.795Z,4.50
2018-12-22T00:37:37.887Z,4.30
2018-12-22T00:38:37.980Z,4.20
2018-12-22T00:39:38.072Z,4.60
2018-12-22T00:40:38.166Z,5.40
2018-12-22T00:41:38.258Z,5.10
2018-12-22T00:42:38.350Z,4.60
2018-12-22T00:43:38.487Z,4.60
2018-12-22T00:44:38.535Z,5.20
2018-12-22T00:45:38.626Z,4.70
2018-12-22T00:46:38.719Z,4.50
2018-12-22T00:47:38.809Z,4.50
2018-12-22T00:48:38.911Z,4.70
2018-12-22T00:49:39.004Z,4.20
2018-12-22T00:50:39.094Z,4.60
2018-12-22T00:51:39.189Z,5.70
2018-12-22T00:52:39.283Z,4.30
2018-12-22T00:53:39.375Z,4.40
2018-12-22T00:54:39.465Z,4.30
2018-12-22T00:55:39.557Z,4.70
2018-12-22T00:56:39.652Z,4.70
2018-12-22T00:57:39.739Z,4.90
2018-12-22T00:58:39.831Z,4.50
2018-12-22T00:59:39.929Z,4.60
2018-12-22T01:00:40.014Z,5.10
2018-12-22T01:01:40.105Z,4.40
2018-12-22T01:02:40.198Z,5.60
2018-12-22T01:03:40.290Z,4.40
2018-12-22T01:04:40.382Z,5.40
2018-12-22T01:05:40.475Z,5.50
2018-12-22T01:06:40.564Z,4.90
2018-12-22T01:07:40.656Z,5.20
2018-12-22T01:08:40.748Z,4.50
2018-12-22T01:09:40.841Z,4.60
2018-12-22T01:10:40.935Z,5.00
2018-12-22T01:11:41.031Z,4.10
2018-12-22T01:12:41.122Z,4.80
2018-12-22T01:13:41.213Z,4.90
2018-12-22T01:14:41.305Z,4.40
2018-12-22T01:15:41.397Z,4.10
2018-12-22T01:16:41.491Z,4.50
2018-12-22T01:17:41.587Z,4.70
2018-12-22T01:18:41.674Z,4.40
2018-12-22T01:19:41.766Z,4.70
2018-12-22T01:20:41.854Z,4.70
2018-12-22T01:21:41.945Z,4.40
2018-12-22T01:22:42.036Z,4.50
2018-12-22T01:23:42.130Z,4.80
2018-12-22T01:24:42.219Z,4.10
2018-12-22T01:25:42.311Z,4.70
2018-12-22T01:26:42.402Z,5.10
2018-12-22T01:27:42.495Z,4.90
2018-12-22T01:28:42.586Z,4.30
2018-12-22T01:29:42.681Z,4.20
2018-12-22T01:30:42.771Z,4.40
2018-12-22T01:31:42.864Z,4.50
2018-12-22T01:32:42.956Z,4.40
2018-12-22T01:33:43.043Z,5.00
2018-12-22T01:34:43.134Z,4.90
2018-12-22T01:35:43.227Z,4.30
2018-12-22T01:36:43.319Z,4.80
2018-12-22T01:37:43.413Z,4.30
2018-12-22T01:38:43.505Z,5.60
2018-12-22T01:39:43.616Z,3.90
2018-12-22T01:40:43.714Z,4.30
2018-12-22T01:41:43.806Z,3.80
2018-12-22T01:42:43.900Z,4.90
2018-12-22T01:43:43.993Z,4.30
2018-12-22T01:44:44.083Z,3.70
2018-12-22T01:45:44.174Z,4.50
2018-12-22T01:46:44.263Z,4.50
2018-12-22T01:47:44.352Z,3.90
2018-12-22T01:48:44.442Z,3.90
2018-12-22T01:49:44.535Z,3.60
2018-12-22T01:50:44.631Z,4.10
2018-12-22T01:51:44.720Z,4.50
2018-12-22T01:52:44.813Z,4.50
2018-12-22T01:53:44.904Z,4.00
2018-12-22T01:54:44.997Z,4.40
2018-12-22T01:55:45.090Z,4.00
2018-12-22T01:56:45.174Z,4.00
2018-12-22T01:57:45.278Z,4.50
2018-12-22T01:58:47.969Z,4.40
2018-12-22T01:59:45.459Z,4.30
2018-12-22T02:00:45.551Z,4.30
2018-12-22T02:01:45.643Z,4.40
2018-12-22T02:02:45.735Z,3.70
2018-12-22T02:03:45.827Z,3.70
2018-12-22T02:04:45.919Z,4.20
2018-12-22T02:05:46.004Z,4.10
2018-12-22T02:06:46.105Z,3.50
2018-12-22T02:07:46.192Z,4.20
2018-12-22T02:08:46.280Z,3.50
2018-12-22T02:09:46.373Z,3.50
2018-12-22T02:10:46.470Z,3.60
2018-12-22T02:11:46.572Z,3.60
2018-12-22T02:12:46.666Z,4.40
2018-12-22T02:13:46.755Z,3.60
2018-12-22T02:14:46.848Z,4.20
2018-12-22T02:15:46.939Z,3.80
2018-12-22T02:16:47.031Z,4.60
2018-12-22T02:17:47.122Z,4.30
2018-12-22T02:18:47.214Z,3.70
2018-12-22T02:19:47.303Z,4.10
2018-12-22T02:20:47.392Z,4.80
2018-12-22T02:21:47.486Z,3.80
2018-12-22T02:22:47.576Z,4.00
2018-12-22T02:23:47.671Z,3.60
2018-12-22T02:24:47.762Z,3.80
2018-12-22T02:25:47.855Z,3.70
2018-12-22T02:26:48.098Z,3.90
2018-12-22T02:27:48.032Z,3.60
2018-12-22T02:28:56.388Z,3.20
2018-12-22T02:29:48.214Z,4.30
2018-12-22T02:30:48.307Z,3.80
2018-12-22T02:31:48.406Z,3.90
2018-12-22T02:32:48.491Z,4.10
2018-12-22T02:33:48.584Z,3.80
2018-12-22T02:34:48.676Z,3.50
2018-12-22T02:35:48.769Z,3.40
2018-12-22T02:36:48.862Z,3.60
2018-12-22T02:37:48.948Z,3.60
2018-12-22T02:38:49.044Z,4.10
2018-12-22T02:39:49.137Z,4.30
2018-12-22T02:40:49.234Z,3.70
2018-12-22T02:41:49.325Z,4.50
2018-12-22T02:42:49.426Z,4.30
2018-12-22T02:43:49.533Z,3.90
2018-12-22T02:44:49.628Z,3.90
2018-12-22T02:45:49.714Z,4.10
2018-12-22T02:46:49.809Z,3.80
2018-12-22T02:47:49.899Z,4.10
2018-12-22T02:48:49.991Z,3.60
2018-12-22T02:49:50.083Z,3.80
2018-12-22T02:50:50.170Z,3.50
2018-12-22T02:51:50.272Z,3.80
2018-12-22T02:52:50.361Z,3.80
2018-12-22T02:53:50.456Z,3.50
2018-12-22T02:54:50.546Z,3.70
2018-12-22T02:55:50.636Z,4.50
2018-12-22T02:56:50.751Z,4.00
2018-12-22T02:57:50.844Z,3.60
2018-12-22T02:58:50.934Z,3.50
2018-12-22T02:59:51.027Z,3.90
2018-12-22T03:00:51.120Z,3.30
2018-12-22T03:01:51.210Z,3.70
2018-12-22T03:02:51.302Z,3.80
2018-12-22T03:03:51.394Z,3.70
2018-12-22T03:04:51.484Z,4.10
2018-12-22T03:05:51.575Z,3.60
2018-12-22T03:06:51.670Z,4.20
2018-12-22T03:07:51.761Z,4.10
2018-12-22T03:08:51.855Z,4.10
2018-12-22T03:09:51.948Z,4.50
2018-12-22T03:10:52.044Z,4.00
2018-12-22T03:11:52.130Z,4.00
2018-12-22T03:12:52.220Z,4.10
2018-12-22T03:13:52.314Z,3.50
2018-12-22T03:14:52.406Z,4.20
2018-12-22T03:15:52.497Z,4.40
2018-12-22T03:16:52.591Z,3.70
2018-12-22T03:17:52.681Z,3.90
2018-12-22T03:18:52.771Z,4.20
2018-12-22T03:19:52.867Z,4.30
2018-12-22T03:20:52.955Z,3.70
2018-12-22T03:21:53.044Z,4.30
2018-12-22T03:22:53.136Z,4.40
2018-12-22T03:23:53.227Z,4.00
2018-12-22T03:24:53.320Z,3.90
2018-12-22T03:25:53.412Z,3.60
2018-12-22T03:26:53.504Z,3.80
2018-12-22T03:27:53.597Z,3.90
2018-12-22T03:28:53.691Z,3.80
2018-12-22T03:29:53.781Z,4.00
2018-12-22T03:30:53.873Z,4.20
2018-12-22T03:31:53.964Z,4.00
2018-12-22T03:32:54.056Z,4.00
2018-12-22T03:33:54.148Z,3.60
2018-12-22T03:34:54.238Z,3.60
2018-12-22T03:35:54.331Z,4.00
2018-12-22T03:36:54.421Z,3.70
2018-12-22T03:37:54.518Z,3.80
2018-12-22T03:38:54.611Z,3.70
2018-12-22T03:39:54.703Z,4.10
2018-12-22T03:40:54.796Z,3.80
2018-12-22T03:41:54.893Z,4.10
2018-12-22T03:42:54.981Z,4.40
2018-12-22T03:43:55.073Z,3.80
2018-12-22T03:44:55.302Z,3.40
2018-12-22T03:45:55.258Z,4.50
2018-12-22T03:46:55.360Z,4.30
2018-12-22T03:47:55.448Z,3.70
2018-12-22T03:48:55.543Z,4.10
2018-12-22T03:49:55.635Z,3.60
2018-12-22T03:50:55.725Z,4.10
2018-12-22T03:51:55.819Z,4.00
2018-12-22T03:52:55.920Z,3.70
2018-12-22T03:53:56.002Z,4.50
2018-12-22T03:54:56.102Z,3.40
2018-12-22T03:55:56.190Z,3.90
2018-12-22T03:56:56.297Z,4.40
2018-12-22T03:57:56.380Z,3.80
2018-12-22T03:58:56.471Z,4.30
2018-12-22T03:59:56.561Z,3.80
2018-12-22T04:00:56.663Z,3.90
2018-12-22T04:01:56.756Z,4.10
2018-12-22T04:02:56.849Z,3.30
2018-12-22T04:03:56.940Z,3.60
2018-12-22T04:04:57.039Z,3.70
2018-12-22T04:05:57.131Z,3.80
2018-12-22T04:06:57.223Z,3.50
2018-12-22T04:07:57.314Z,3.70
2018-12-22T04:08:57.405Z,3.50
2018-12-22T04:09:57.496Z,4.00
2018-12-22T04:10:57.593Z,3.60
2018-12-22T04:11:57.778Z,3.80
2018-12-22T04:12:57.782Z,4.20
2018-12-22T04:13:57.884Z,3.80
2018-12-22T04:14:57.974Z,3.60
2018-12-22T04:15:58.066Z,4.00
2018-12-22T04:16:58.161Z,3.20
2018-12-22T04:17:58.258Z,3.50
2018-12-22T04:18:58.343Z,3.40
2018-12-22T04:19:58.436Z,3.70
2018-12-22T04:20:58.560Z,3.60
2018-12-22T04:21:58.610Z,3.60
2018-12-22T04:22:58.705Z,3.60
2018-12-22T04:23:58.793Z,3.70
2018-12-22T04:24:58.884Z,3.30
2018-12-22T04:25:58.976Z,3.30
2018-12-22T04:26:59.067Z,3.50
2018-12-22T04:27:59.159Z,3.40
2018-12-22T04:28:59.250Z,3.30
2018-12-22T04:29:59.343Z,3.10
2018-12-22T04:30:59.440Z,4.10
2018-12-22T04:31:59.534Z,3.20
2018-12-22T04:32:59.617Z,3.40
2018-12-22T04:33:59.710Z,3.10
2018-12-22T04:34:59.802Z,3.40
2018-12-22T04:35:59.895Z,2.90
2018-12-22T04:36:59.986Z,3.50
2018-12-22T04:38:00.078Z,3.70
2018-12-22T04:39:00.175Z,3.40
2018-12-22T04:40:00.263Z,3.50
2018-12-22T04:41:00.356Z,3.30
2018-12-22T04:42:00.449Z,3.40
2018-12-22T04:43:00.540Z,3.80
2018-12-22T04:44:00.633Z,3.30
2018-12-22T04:45:00.725Z,3.40
2018-12-22T04:46:00.839Z,4.00
2018-12-22T04:47:00.932Z,3.40
2018-12-22T04:48:01.025Z,3.30
2018-12-22T04:49:01.118Z,3.80
2018-12-22T04:50:01.211Z,3.20
2018-12-22T04:51:01.301Z,3.00
2018-12-22T04:52:01.396Z,3.80
2018-12-22T04:53:01.486Z,3.60
2018-12-22T04:54:01.576Z,3.80
2018-12-22T04:55:01.667Z,3.40
2018-12-22T04:56:01.758Z,3.30
2018-12-22T04:57:01.848Z,3.80
2018-12-22T04:58:01.942Z,3.20
2018-12-22T04:59:02.033Z,3.60
2018-12-22T05:00:02.129Z,4.00
2018-12-22T05:01:02.224Z,4.10
2018-12-22T05:02:02.312Z,3.70
2018-12-22T05:03:02.403Z,4.00
2018-12-22T05:04:02.498Z,3.20
2018-12-22T05:05:02.595Z,3.50
2018-12-22T05:06:02.680Z,3.60
2018-12-22T05:07:02.772Z,3.80
2018-12-22T05:08:02.864Z,3.90
2018-12-22T05:09:02.963Z,4.10
2018-12-22T05:10:03.047Z,3.70
2018-12-22T05:11:03.146Z,3.70
2018-12-22T05:12:03.239Z,3.20
2018-12-22T05:13:03.327Z,3.30
2018-12-22T05:14:03.416Z,3.70
2018-12-22T05:15:03.511Z,3.50
2018-12-22T05:16:03.604Z,3.40
2018-12-22T05:17:03.692Z,3.50
2018-12-22T05:18:03.804Z,3.70
2018-12-22T05:19:03.894Z,3.40
2018-12-22T05:20:03.984Z,3.30
2018-12-22T05:21:04.080Z,3.80
2018-12-22T05:22:04.170Z,3.50
2018-12-22T05:23:04.264Z,3.40
2018-12-22T05:24:04.354Z,4.20
2018-12-22T05:25:04.439Z,3.40
2018-12-22T05:26:04.530Z,3.20
2018-12-22T05:27:04.622Z,3.60
2018-12-22T05:28:04.716Z,3.70
2018-12-22T05:29:04.805Z,3.30
2018-12-22T05:30:04.895Z,4.00
2018-12-22T05:31:04.992Z,3.50
2018-12-22T05:32:05.082Z,3.80
2018-12-22T05:33:05.174Z,3.80
2018-12-22T05:34:05.267Z,3.90
2018-12-22T05:35:05.358Z,4.00
2018-12-22T05:36:05.563Z,3.60
2018-12-22T05:37:05.542Z,3.70
2018-12-22T05:38:05.633Z,3.70
2018-12-22T05:39:05.724Z,3.40
2018-12-22T05:40:05.815Z,3.80
2018-12-22T05:41:05.907Z,3.80
2018-12-22T05:42:05.999Z,3.60
2018-12-22T05:43:06.090Z,3.50
2018-12-22T05:44:06.191Z,3.80
2018-12-22T05:45:06.279Z,3.50
2018-12-22T05:46:06.370Z,4.70
2018-12-22T05:47:06.460Z,3.60
2018-12-22T05:48:06.552Z,3.60
2018-12-22T05:49:06.651Z,4.30
2018-12-22T05:50:06.758Z,3.80
2018-12-22T05:51:06.851Z,3.30
2018-12-22T05:52:06.937Z,3.40
2018-12-22T05:53:07.027Z,4.00
2018-12-22T05:54:07.119Z,3.20
2018-12-22T05:55:07.211Z,3.40
2018-12-22T05:56:07.303Z,2.90
2018-12-22T05:57:07.388Z,3.10
2018-12-22T05:58:07.477Z,3.70
2018-12-22T05:59:07.571Z,3.50
2018-12-22T06:00:07.664Z,3.00
2018-12-22T06:01:07.752Z,3.20
2018-12-22T06:02:07.843Z,3.20
2018-12-22T06:03:07.933Z,3.90
2018-12-22T06:04:08.027Z,3.20
2018-12-22T06:05:08.116Z,3.00
2018-12-22T06:06:08.217Z,3.20
2018-12-22T06:07:08.304Z,3.20
2018-12-22T06:08:08.397Z,3.60
2018-12-22T06:09:08.489Z,2.90
2018-12-22T06:10:08.589Z,3.10
2018-12-22T06:11:08.676Z,3.10
2018-12-22T06:12:08.768Z,3.30
2018-12-22T06:13:08.858Z,3.20
2018-12-22T06:14:08.951Z,3.10
2018-12-22T06:15:09.040Z,2.90
2018-12-22T06:16:09.127Z,2.90
2018-12-22T06:17:09.216Z,3.20
2018-12-22T06:18:09.306Z,3.40
2018-12-22T06:19:09.397Z,2.80
2018-12-22T06:20:09.497Z,3.70
2018-12-22T06:21:09.582Z,2.90
2018-12-22T06:22:09.671Z,2.90
2018-12-22T06:23:09.767Z,3.20
2018-12-22T06:24:09.855Z,2.90
2018-12-22T06:25:09.949Z,3.00
2018-12-22T06:26:10.038Z,3.60
2018-12-22T06:27:10.162Z,3.00
2018-12-22T06:28:10.220Z,3.10
2018-12-22T06:29:10.312Z,2.70
2018-12-22T06:30:10.404Z,2.80
2018-12-22T06:31:10.495Z,3.10
2018-12-22T06:32:10.586Z,3.20
2018-12-22T06:33:10.677Z,2.70
2018-12-22T06:34:10.768Z,3.20
2018-12-22T06:35:10.860Z,3.10
2018-12-22T06:36:10.952Z,2.80
2018-12-22T06:37:11.042Z,2.70
2018-12-22T06:38:11.136Z,2.50
2018-12-22T06:39:11.226Z,2.70
2018-12-22T06:40:11.318Z,3.00
2018-12-22T06:41:11.413Z,2.40
2018-12-22T06:42:11.504Z,2.60
2018-12-22T06:43:11.594Z,2.40
2018-12-22T06:44:11.686Z,2.00
2018-12-22T06:45:11.778Z,2.40
2018-12-22T06:46:11.871Z,2.30
2018-12-22T06:47:11.964Z,2.20
2018-12-22T06:48:12.058Z,2.50
2018-12-22T06:49:12.149Z,2.70
2018-12-22T06:50:12.240Z,2.40
2018-12-22T06:51:12.333Z,2.10
2018-12-22T06:52:12.430Z,1.90
2018-12-22T06:53:12.520Z,2.40
2018-12-22T06:54:12.618Z,2.00
2018-12-22T06:55:12.704Z,1.90
2018-12-22T06:56:12.803Z,2.10
2018-12-22T06:57:12.892Z,2.00
2018-12-22T06:58:12.983Z,2.20
2018-12-22T06:59:13.078Z,2.00
2018-12-22T07:00:17.683Z,2.10
2018-12-22T07:01:13.268Z,1.90
2018-12-22T07:02:13.359Z,2.10
2018-12-22T07:03:13.470Z,2.70
2018-12-22T07:04:13.557Z,2.00
2018-12-22T07:05:13.651Z,2.00
2018-12-22T07:06:13.737Z,1.80
2018-12-22T07:07:13.821Z,2.00
2018-12-22T07:08:13.910Z,1.90
2018-12-22T07:09:14.002Z,2.30
2018-12-22T07:10:14.092Z,1.90
2018-12-22T07:11:14.188Z,2.20
2018-12-22T07:12:14.280Z,2.20
2018-12-22T07:13:14.371Z,1.90
2018-12-22T07:14:14.469Z,2.10
2018-12-22T07:15:14.561Z,2.00
2018-12-22T07:16:14.645Z,2.10
2018-12-22T07:17:14.736Z,2.00
2018-12-22T07:18:14.826Z,1.80
2018-12-22T07:19:14.918Z,2.10
2018-12-22T07:20:15.010Z,2.10
2018-12-22T07:21:15.102Z,2.30
2018-12-22T07:22:15.194Z,2.30
2018-12-22T07:23:15.285Z,2.20
2018-12-22T07:24:15.376Z,1.80
2018-12-22T07:25:15.469Z,2.30
2018-12-22T07:26:15.568Z,2.30
2018-12-22T07:27:15.653Z,2.20
2018-12-22T07:28:15.748Z,2.30
2018-12-22T07:29:15.837Z,2.00
2018-12-22T07:30:15.935Z,1.60
2018-12-22T07:31:16.021Z,1.90
2018-12-22T07:32:16.111Z,2.20
2018-12-22T07:33:16.202Z,1.90
2018-12-22T07:34:16.295Z,1.90
2018-12-22T07:35:16.390Z,1.80
2018-12-22T07:36:16.478Z,2.00
2018-12-22T07:37:16.568Z,1.90
2018-12-22T07:38:16.664Z,2.30
2018-12-22T07:39:16.752Z,2.20
2018-12-22T07:40:16.851Z,2.30
2018-12-22T07:41:16.942Z,1.90
2018-12-22T07:42:17.034Z,2.00
2018-12-22T07:43:17.144Z,2.20
2018-12-22T07:44:17.232Z,1.80
2018-12-22T07:45:17.323Z,2.20
2018-12-22T07:46:17.417Z,1.90
2018-12-22T07:47:17.510Z,1.80
2018-12-22T07:48:17.601Z,2.00
2018-12-22T07:49:17.695Z,3.10
2018-12-22T07:50:17.789Z,3.30
2018-12-22T07:51:17.880Z,3.20
2018-12-22T07:52:17.976Z,2.10
2018-12-22T07:53:18.069Z,2.10
2018-12-22T07:54:18.158Z,5.50
2018-12-22T07:55:18.251Z,3.50
2018-12-22T07:56:18.343Z,2.70
2018-12-22T07:57:18.443Z,2.50
2018-12-22T07:58:18.528Z,2.10
2018-12-22T07:59:18.635Z,2.10
2018-12-22T08:00:18.727Z,2.20
2018-12-22T08:01:19.975Z,2.10
2018-12-22T08:02:18.911Z,2.80
2018-12-22T08:03:19.003Z,2.10
2018-12-22T08:04:19.089Z,2.20
2018-12-22T08:05:19.178Z,2.10
2018-12-22T08:06:19.270Z,2.30
2018-12-22T08:07:19.362Z,2.10
2018-12-22T08:08:19.453Z,2.20
2018-12-22T08:09:19.544Z,2.10
2018-12-22T08:10:19.637Z,2.10
2018-12-22T08:11:19.730Z,2.30
2018-12-22T08:12:19.818Z,2.20
2018-12-22T08:13:19.907Z,2.10
2018-12-22T08:14:20.003Z,2.10
2018-12-22T08:15:20.094Z,2.40
2018-12-22T08:16:20.185Z,2.10
2018-12-22T08:17:20.279Z,2.20
2018-12-22T08:18:20.371Z,2.20
2018-12-22T08:19:20.461Z,1.90
2018-12-22T08:20:20.556Z,1.80
2018-12-22T08:21:20.649Z,2.20
2018-12-22T08:22:20.739Z,2.10
2018-12-22T08:23:20.832Z,1.60
2018-12-22T08:24:20.924Z,2.00
2018-12-22T08:25:21.016Z,2.10
2018-12-22T08:26:21.113Z,2.40
2018-12-22T08:27:21.202Z,2.40
2018-12-22T08:28:21.295Z,2.10
2018-12-22T08:29:21.389Z,2.00
2018-12-22T08:30:21.483Z,2.10
2018-12-22T08:31:23.135Z,2.50
2018-12-22T08:32:21.662Z,2.00
2018-12-22T08:33:21.757Z,1.80
2018-12-22T08:34:21.848Z,2.00
2018-12-22T08:35:21.943Z,2.30
2018-12-22T08:36:22.037Z,2.10
2018-12-22T08:37:22.129Z,1.80
2018-12-22T08:38:22.220Z,1.60
2018-12-22T08:39:22.313Z,2.10
2018-12-22T08:40:22.409Z,1.70
2018-12-22T08:41:22.502Z,2.10
2018-12-22T08:42:22.597Z,1.50
2018-12-22T08:43:22.678Z,1.80
2018-12-22T08:44:22.766Z,1.90
2018-12-22T08:45:22.859Z,1.60
2018-12-22T08:46:22.951Z,1.50
2018-12-22T08:47:23.043Z,2.10
2018-12-22T08:48:23.136Z,1.50
2018-12-22T08:49:23.228Z,1.60
2018-12-22T08:50:23.320Z,1.60
2018-12-22T08:51:23.414Z,1.40
2018-12-22T08:52:23.618Z,1.60
2018-12-22T08:53:23.600Z,1.30
2018-12-22T08:54:23.681Z,1.50
2018-12-22T08:55:23.776Z,1.90
2018-12-22T08:56:23.868Z,1.60
2018-12-22T08:57:23.961Z,1.10
2018-12-22T08:58:24.052Z,1.80
2018-12-22T08:59:24.145Z,1.50
2018-12-22T09:00:24.259Z,1.30
2018-12-22T09:01:24.353Z,1.40
2018-12-22T09:02:24.444Z,1.70
2018-12-22T09:03:24.536Z,1.40
2018-12-22T09:04:24.628Z,1.60
2018-12-22T09:05:24.719Z,1.20
2018-12-22T09:06:24.811Z,1.30
2018-12-22T09:07:24.902Z,1.30
2018-12-22T09:08:24.994Z,1.50
2018-12-22T09:09:25.088Z,1.40
2018-12-22T09:10:25.180Z,1.40
2018-12-22T09:11:25.269Z,1.30
2018-12-22T09:12:25.360Z,1.30
2018-12-22T09:13:25.453Z,1.20
2018-12-22T09:14:25.547Z,1.40
2018-12-22T09:15:25.638Z,1.30
2018-12-22T09:16:25.728Z,1.40
2018-12-22T09:17:25.820Z,1.30
2018-12-22T09:18:25.911Z,1.30
2018-12-22T09:19:26.006Z,1.50
2018-12-22T09:20:26.096Z,1.50
2018-12-22T09:21:26.191Z,1.40
2018-12-22T09:22:26.284Z,1.20
2018-12-22T09:23:26.380Z,1.00
2018-12-22T09:24:26.470Z,1.10
2018-12-22T09:25:26.564Z,1.00
2018-12-22T09:26:26.647Z,1.00
2018-12-22T09:27:26.743Z,1.10
2018-12-22T09:28:26.835Z,1.20
2018-12-22T09:29:26.927Z,1.10
2018-12-22T09:30:27.021Z,1.40
2018-12-22T09:31:27.112Z,1.20
2018-12-22T09:32:27.221Z,1.40
2018-12-22T09:33:27.310Z,1.00
2018-12-22T09:34:27.404Z,1.10
2018-12-22T09:35:27.495Z,1.30
2018-12-22T09:36:27.585Z,1.00
2018-12-22T09:37:27.682Z,1.10
2018-12-22T09:38:27.775Z,1.20
2018-12-22T09:39:27.862Z,1.00
2018-12-22T09:40:27.968Z,1.30
2018-12-22T09:41:28.059Z,1.30
2018-12-22T09:42:28.151Z,1.10
2018-12-22T09:43:28.242Z,1.20
2018-12-22T09:44:28.343Z,1.40
2018-12-22T09:45:28.444Z,1.10
2018-12-22T09:46:28.533Z,1.00
2018-12-22T09:47:28.626Z,1.00
2018-12-22T09:48:28.721Z,0.90
2018-12-22T09:49:28.811Z,1.00
2018-12-22T09:50:28.903Z,1.10
2018-12-22T09:51:28.994Z,1.10
2018-12-22T09:52:29.092Z,1.00
2018-12-22T09:53:29.178Z,1.10
2018-12-22T09:54:29.269Z,1.00
2018-12-22T09:55:29.362Z,1.00
2018-12-22T09:56:29.454Z,1.50
2018-12-22T09:57:29.546Z,1.10
2018-12-22T09:58:29.637Z,1.20
2018-12-22T09:59:29.732Z,1.10
2018-12-22T10:00:29.821Z,0.90
2018-12-22T10:01:29.913Z,1.10
2018-12-22T10:02:30.009Z,1.20
2018-12-22T10:03:30.098Z,1.10
2018-12-22T10:04:30.193Z,1.20
2018-12-22T10:05:30.285Z,1.20
2018-12-22T10:06:30.380Z,1.10
2018-12-22T10:07:30.470Z,1.60
2018-12-22T10:08:30.563Z,0.90
2018-12-22T10:09:30.653Z,1.10
2018-12-22T10:10:30.768Z,1.70
2018-12-22T10:11:30.864Z,7.60
2018-12-22T10:12:30.961Z,4.10
2018-12-22T10:13:31.054Z,1.20
2018-12-22T10:14:31.145Z,0.90
2018-12-22T10:15:31.241Z,1.00
2018-12-22T10:16:31.333Z,1.00
2018-12-22T10:17:31.427Z,1.30
2018-12-22T10:18:31.519Z,1.30
2018-12-22T10:19:31.610Z,1.10
2018-12-22T10:20:31.701Z,1.20
2018-12-22T10:21:31.794Z,1.20
2018-12-22T10:22:31.889Z,1.20
2018-12-22T10:23:31.982Z,1.10
2018-12-22T10:24:32.075Z,1.00
2018-12-22T10:25:32.174Z,1.40
2018-12-22T10:26:32.261Z,1.10
2018-12-22T10:27:32.356Z,1.00
2018-12-22T10:28:32.450Z,0.90
2018-12-22T10:29:32.543Z,1.10
2018-12-22T10:30:32.634Z,1.10
2018-12-22T10:31:32.731Z,1.20
2018-12-22T10:32:32.821Z,1.20
2018-12-22T10:33:32.916Z,1.30
2018-12-22T10:34:33.010Z,1.50
2018-12-22T10:35:33.103Z,1.30
2018-12-22T10:36:33.199Z,1.20
2018-12-22T10:37:33.291Z,1.40
2018-12-22T10:38:33.380Z,1.30
2018-12-22T10:39:33.475Z,1.10
2018-12-22T10:40:33.569Z,1.10
2018-12-22T10:41:33.668Z,1.10
2018-12-22T10:42:33.761Z,1.10
2018-12-22T10:43:33.851Z,1.10
2018-12-22T10:44:33.952Z,1.00
2018-12-22T10:45:34.044Z,1.10
2018-12-22T10:46:34.138Z,1.40
2018-12-22T10:47:34.231Z,1.20
2018-12-22T10:48:34.373Z,1.20
2018-12-22T10:49:34.409Z,1.10
2018-12-22T10:50:34.493Z,1.10
2018-12-22T10:51:34.583Z,1.10
2018-12-22T10:52:34.678Z,1.10
2018-12-22T10:53:34.768Z,1.20
2018-12-22T10:54:34.869Z,1.30
2018-12-22T10:55:34.964Z,1.10
2018-12-22T10:56:35.078Z,1.10
2018-12-22T10:57:35.171Z,1.10
2018-12-22T10:58:35.259Z,1.10
2018-12-22T10:59:35.356Z,1.10
2018-12-22T11:00:35.448Z,1.20
2018-12-22T11:01:35.541Z,1.50
2018-12-22T11:02:35.633Z,1.20
2018-12-22T11:03:35.728Z,1.40
2018-12-22T11:04:35.819Z,1.40
2018-12-22T11:05:35.910Z,1.30
2018-12-22T11:06:36.007Z,1.20
2018-12-22T11:07:36.098Z,1.30
2018-12-22T11:08:36.191Z,1.30
2018-12-22T11:09:36.297Z,1.30
2018-12-22T11:10:36.392Z,1.40
2018-12-22T11:11:36.485Z,1.40
2018-12-22T11:12:36.579Z,1.50
2018-12-22T11:13:36.670Z,1.40
2018-12-22T11:14:36.763Z,1.30
2018-12-22T11:15:36.853Z,1.60
2018-12-22T11:16:36.939Z,1.30
2018-12-22T11:17:37.031Z,1.20
2018-12-22T11:18:37.124Z,1.10
2018-12-22T11:19:37.217Z,1.50
2018-12-22T11:20:37.307Z,1.20
2018-12-22T11:21:37.401Z,1.40
2018-12-22T11:22:37.496Z,1.20
2018-12-22T11:23:37.588Z,1.30
2018-12-22T11:24:37.683Z,1.30
2018-12-22T11:25:37.775Z,1.40
2018-12-22T11:26:37.880Z,1.20
2018-12-22T11:27:37.972Z,1.70
2018-12-22T11:28:38.066Z,1.30
2018-12-22T11:29:38.158Z,1.30
2018-12-22T11:30:38.249Z,1.40
2018-12-22T11:31:38.344Z,1.50
2018-12-22T11:32:38.435Z,1.30
2018-12-22T11:33:38.531Z,1.40
2018-12-22T11:34:38.620Z,1.40
2018-12-22T11:35:38.712Z,1.50
2018-12-22T11:36:38.805Z,1.50
2018-12-22T11:37:38.899Z,1.50
2018-12-22T11:38:38.990Z,1.40
2018-12-22T11:39:39.083Z,1.30
2018-12-22T11:40:39.177Z,1.20
2018-12-22T11:41:39.274Z,1.40
2018-12-22T11:42:47.409Z,1.50
2018-12-22T11:43:39.459Z,1.30
2018-12-22T11:44:39.556Z,1.30
2018-12-22T11:45:39.646Z,1.50
2018-12-22T11:46:39.735Z,1.40
2018-12-22T11:47:39.830Z,1.40
2018-12-22T11:48:39.926Z,1.40
2018-12-22T11:49:40.015Z,1.40
2018-12-22T11:50:40.109Z,1.50
2018-12-22T11:51:40.199Z,1.40
2018-12-22T11:52:40.294Z,1.60
2018-12-22T11:53:40.388Z,1.30
2018-12-22T11:54:40.479Z,1.40
2018-12-22T11:55:40.572Z,1.50
2018-12-22T11:56:40.665Z,1.30
2018-12-22T11:57:40.757Z,1.20
2018-12-22T11:58:40.850Z,1.40
2018-12-22T11:59:40.943Z,1.30
2018-12-22T12:00:41.037Z,1.20
2018-12-22T12:01:43.657Z,1.40
2018-12-22T12:02:41.225Z,1.30
2018-12-22T12:03:41.316Z,1.50
2018-12-22T12:04:42.139Z,1.30
2018-12-22T12:05:41.530Z,1.30
2018-12-22T12:06:41.612Z,1.60
2018-12-22T12:07:41.716Z,1.70
2018-12-22T12:08:42.495Z,1.50
2018-12-22T12:09:41.894Z,1.90
2018-12-22T12:10:41.994Z,1.50
2018-12-22T12:11:42.109Z,1.40
2018-12-22T12:12:42.208Z,1.30
2018-12-22T12:13:42.300Z,1.30
2018-12-22T12:14:42.430Z,1.40
2018-12-22T12:15:42.522Z,1.40
2018-12-22T12:16:42.618Z,5.40
2018-12-22T12:17:42.711Z,2.20
2018-12-22T12:18:42.808Z,1.40
2018-12-22T12:19:42.970Z,1.50
2018-12-22T12:20:42.998Z,1.50
2018-12-22T12:21:43.095Z,2.80
2018-12-22T12:22:43.192Z,1.70
2018-12-22T12:23:43.291Z,1.50
2018-12-22T12:24:43.423Z,1.30
2018-12-22T12:25:43.469Z,1.40
2018-12-22T12:26:43.564Z,1.60
2018-12-22T12:27:43.660Z,1.40
2018-12-22T12:28:43.847Z,1.50
2018-12-22T12:29:43.844Z,1.50
2018-12-22T12:30:43.937Z,1.20
2018-12-22T12:31:51.927Z,1.40
2018-12-22T12:32:44.122Z,1.40
2018-12-22T12:33:44.214Z,1.30
2018-12-22T12:34:44.309Z,1.40
2018-12-22T12:35:44.415Z,1.20
2018-12-22T12:36:44.506Z,1.40
2018-12-22T12:37:44.599Z,1.60
2018-12-22T12:38:44.693Z,1.40
2018-12-22T12:39:44.784Z,1.50
2018-12-22T12:40:44.880Z,1.50
2018-12-22T12:41:44.974Z,1.70
2018-12-22T12:42:45.069Z,1.50
2018-12-22T12:43:45.168Z,1.90
2018-12-22T12:44:45.261Z,2.00
2018-12-22T12:45:45.351Z,1.70
2018-12-22T12:46:45.445Z,4.60
2018-12-22T12:47:45.542Z,1.80
2018-12-22T12:48:45.641Z,1.80
2018-12-22T12:49:45.736Z,2.10
2018-12-22T12:50:47.817Z,1.70
2018-12-22T12:51:45.921Z,2.00
2018-12-22T12:52:46.014Z,3.90
2018-12-22T12:53:46.107Z,2.10
2018-12-22T12:54:46.201Z,1.90
2018-12-22T12:55:46.294Z,2.00
2018-12-22T12:56:46.388Z,1.50
2018-12-22T12:57:46.482Z,1.40
2018-12-22T12:58:46.571Z,1.50
2018-12-22T12:59:46.661Z,1.70
2018-12-22T13:00:46.767Z,2.10
2018-12-22T13:01:46.862Z,3.20
2018-12-22T13:02:46.953Z,3.90
2018-12-22T13:03:47.069Z,2.10
2018-12-22T13:04:47.139Z,2.20
2018-12-22T13:05:47.232Z,1.50
2018-12-22T13:06:47.326Z,1.50
2018-12-22T13:07:47.418Z,1.90
2018-12-22T13:08:47.511Z,1.60
2018-12-22T13:09:47.604Z,1.30
2018-12-22T13:10:47.706Z,1.50
2018-12-22T13:11:47.798Z,1.70
2018-12-22T13:12:47.893Z,1.60
2018-12-22T13:13:47.991Z,1.60
2018-12-22T13:14:48.079Z,1.60
2018-12-22T13:15:48.171Z,2.20
2018-12-22T13:16:48.264Z,1.90
2018-12-22T13:17:48.360Z,1.40
2018-12-22T13:18:48.451Z,1.30
2018-12-22T13:19:48.543Z,1.70